KSNS/SNS METAR and TAF weather

Enter ICAO airport designator
Station Type Date Time Source
KSNS METAR 2019/08/24 21:53 UTC NOAA

KSNS 242153Z AUTO 32013KT 10SM CLR 21/14 A2996 RMK AO2 SLP152 T02110144


Station Type Date Time Source
KSNS Decoded METAR 2019/08/24 21:53 UTC NOAA

Station name not available
Aug 24, 2019 - 05:53 PM EDT / 2019.08.24 2153 UTC
Wind: from the NW (320 degrees) at 15 MPH (13 KT):0
Visibility: 10 mile(s):0
Sky conditions: clear
Temperature: 70.0 F (21.1 C)
Dew Point: 57.9 F (14.4 C)
Relative Humidity: 65%
Pressure (altimeter): 29.96 in. Hg (1014 hPa)
ob: KSNS 242153Z AUTO 32013KT 10SM CLR 21/14 A2996 RMK AO2 SLP152 T02110144
cycle: 22

Station Type Date Time Source
KSNS TAF 2019/08/24 18:39 UTC NOAA

TAF KSNS 241737Z 2418/2518 VRB03KT P6SM FEW011
FM241900 29012KT P6SM SKC
FM250300 31007KT P6SM BKN008
FM250900 VRB04KT 5SM BR OVC007
TEMPO 2513/2516 2SM BR OVC005

Example: see airport list